sensor_id;sensor_type;location;lat;lon;timestamp;temperature;humidity
31129;DHT22;17777;48.770;8.944;2022-09-13T00:00:55;20.50;46.60
31129;DHT22;17777;48.770;8.944;2022-09-13T00:03:21;20.50;46.60
31129;DHT22;17777;48.770;8.944;2022-09-13T00:05:47;20.50;46.70
31129;DHT22;17777;48.770;8.944;2022-09-13T00:08:13;20.40;46.70
31129;DHT22;17777;48.770;8.944;2022-09-13T00:10:42;20.40;46.70
31129;DHT22;17777;48.770;8.944;2022-09-13T00:13:09;20.40;46.80
31129;DHT22;17777;48.770;8.944;2022-09-13T00:15:35;20.40;46.80
31129;DHT22;17777;48.770;8.944;2022-09-13T00:18:02;20.40;46.80
31129;DHT22;17777;48.770;8.944;2022-09-13T00:20:27;20.40;46.80
31129;DHT22;17777;48.770;8.944;2022-09-13T00:22:53;20.40;46.80
31129;DHT22;17777;48.770;8.944;2022-09-13T00:25:19;20.40;46.90
31129;DHT22;17777;48.770;8.944;2022-09-13T00:27:44;20.40;46.90
31129;DHT22;17777;48.770;8.944;2022-09-13T00:30:11;20.40;46.90
31129;DHT22;17777;48.770;8.944;2022-09-13T00:32:37;20.40;46.90
31129;DHT22;17777;48.770;8.944;2022-09-13T00:35:03;20.40;46.90
31129;DHT22;17777;48.770;8.944;2022-09-13T00:37:29;20.40;46.90
31129;DHT22;17777;48.770;8.944;2022-09-13T00:39:56;20.40;46.90
31129;DHT22;17777;48.770;8.944;2022-09-13T00:42:26;20.40;47.00
31129;DHT22;17777;48.770;8.944;2022-09-13T00:50:05;20.30;46.90
31129;DHT22;17777;48.770;8.944;2022-09-13T00:52:35;20.30;47.00
31129;DHT22;17777;48.770;8.944;2022-09-13T00:55:07;20.30;47.00
31129;DHT22;17777;48.770;8.944;2022-09-13T00:57:38;20.20;47.00
31129;DHT22;17777;48.770;8.944;2022-09-13T01:00:07;20.20;47.00
31129;DHT22;17777;48.770;8.944;2022-09-13T01:02:59;20.20;47.10
31129;DHT22;17777;48.770;8.944;2022-09-13T01:05:26;20.20;47.10
31129;DHT22;17777;48.770;8.944;2022-09-13T01:07:55;20.10;47.10
31129;DHT22;17777;48.770;8.944;2022-09-13T01:10:21;20.10;47.20
31129;DHT22;17777;48.770;8.944;2022-09-13T01:15:17;20.10;47.20
31129;DHT22;17777;48.770;8.944;2022-09-13T01:17:43;20.10;47.20
31129;DHT22;17777;48.770;8.944;2022-09-13T01:20:09;20.10;47.20
31129;DHT22;17777;48.770;8.944;2022-09-13T01:31:01;20.00;47.20
31129;DHT22;17777;48.770;8.944;2022-09-13T01:39:29;20.00;47.40
31129;DHT22;17777;48.770;8.944;2022-09-13T01:50:36;19.90;47.40
31129;DHT22;17777;48.770;8.944;2022-09-13T01:53:06;20.00;47.40
31129;DHT22;17777;48.770;8.944;2022-09-13T01:58:29;19.90;47.40
31129;DHT22;17777;48.770;8.944;2022-09-13T02:03:30;19.90;47.50
31129;DHT22;17777;48.770;8.944;2022-09-13T02:06:03;19.90;47.50
31129;DHT22;17777;48.770;8.944;2022-09-13T02:08:46;19.90;47.50
31129;DHT22;17777;48.770;8.944;2022-09-13T02:11:15;19.90;47.50
31129;DHT22;17777;48.770;8.944;2022-09-13T02:13:43;19.80;47.50
31129;DHT22;17777;48.770;8.944;2022-09-13T02:16:16;19.90;47.60
31129;DHT22;17777;48.770;8.944;2022-09-13T02:18:46;19.80;47.50
31129;DHT22;17777;48.770;8.944;2022-09-13T02:21:15;19.80;47.60
31129;DHT22;17777;48.770;8.944;2022-09-13T02:23:48;19.80;47.60
31129;DHT22;17777;48.770;8.944;2022-09-13T02:26:16;19.80;47.60
31129;DHT22;17777;48.770;8.944;2022-09-13T02:28:52;19.80;47.70
31129;DHT22;17777;48.770;8.944;2022-09-13T02:31:22;19.70;47.70
31129;DHT22;17777;48.770;8.944;2022-09-13T02:34:07;19.70;47.70
31129;DHT22;17777;48.770;8.944;2022-09-13T02:36:37;19.70;47.70
31129;DHT22;17777;48.770;8.944;2022-09-13T02:39:06;19.60;47.70
31129;DHT22;17777;48.770;8.944;2022-09-13T02:41:51;19.60;47.70
31129;DHT22;17777;48.770;8.944;2022-09-13T02:44:27;19.60;47.80
31129;DHT22;17777;48.770;8.944;2022-09-13T02:47:09;19.60;47.80
31129;DHT22;17777;48.770;8.944;2022-09-13T02:49:54;19.60;47.80
31129;DHT22;17777;48.770;8.944;2022-09-13T02:57:53;19.50;48.50
31129;DHT22;17777;48.770;8.944;2022-09-13T03:00:24;19.50;47.90
31129;DHT22;17777;48.770;8.944;2022-09-13T03:02:50;19.50;47.90
31129;DHT22;17777;48.770;8.944;2022-09-13T03:05:16;19.40;47.90
31129;DHT22;17777;48.770;8.944;2022-09-13T03:07:42;19.40;47.90
31129;DHT22;17777;48.770;8.944;2022-09-13T03:10:08;19.40;47.90
31129;DHT22;17777;48.770;8.944;2022-09-13T03:12:43;19.30;47.90
31129;DHT22;17777;48.770;8.944;2022-09-13T03:15:27;19.30;47.90
31129;DHT22;17777;48.770;8.944;2022-09-13T03:18:26;19.20;47.90
31129;DHT22;17777;48.770;8.944;2022-09-13T03:21:07;19.20;48.00
31129;DHT22;17777;48.770;8.944;2022-09-13T03:26:31;19.10;48.00
31129;DHT22;17777;48.770;8.944;2022-09-13T03:32:05;19.10;48.10
31129;DHT22;17777;48.770;8.944;2022-09-13T03:37:44;19.10;48.10
31129;DHT22;17777;48.770;8.944;2022-09-13T03:40:27;19.10;48.10
31129;DHT22;17777;48.770;8.944;2022-09-13T03:45:50;19.10;48.20
31129;DHT22;17777;48.770;8.944;2022-09-13T03:48:17;19.10;48.20
31129;DHT22;17777;48.770;8.944;2022-09-13T03:50:45;19.10;48.20
31129;DHT22;17777;48.770;8.944;2022-09-13T03:53:12;19.10;48.30
31129;DHT22;17777;48.770;8.944;2022-09-13T03:55:41;19.10;48.30
31129;DHT22;17777;48.770;8.944;2022-09-13T03:58:15;19.10;48.30
31129;DHT22;17777;48.770;8.944;2022-09-13T04:00:42;19.10;48.30
31129;DHT22;17777;48.770;8.944;2022-09-13T04:03:09;19.10;48.30
31129;DHT22;17777;48.770;8.944;2022-09-13T04:05:35;19.10;48.30
31129;DHT22;17777;48.770;8.944;2022-09-13T04:08:02;19.10;48.30
31129;DHT22;17777;48.770;8.944;2022-09-13T04:10:30;19.10;48.30
31129;DHT22;17777;48.770;8.944;2022-09-13T04:12:59;19.10;48.30
31129;DHT22;17777;48.770;8.944;2022-09-13T04:15:26;19.10;48.30
31129;DHT22;17777;48.770;8.944;2022-09-13T04:17:52;19.10;48.30
31129;DHT22;17777;48.770;8.944;2022-09-13T04:20:18;19.10;48.30
31129;DHT22;17777;48.770;8.944;2022-09-13T04:22:54;19.10;48.30
31129;DHT22;17777;48.770;8.944;2022-09-13T04:25:20;19.00;48.30
31129;DHT22;17777;48.770;8.944;2022-09-13T04:27:47;19.00;48.30
31129;DHT22;17777;48.770;8.944;2022-09-13T04:30:19;19.00;48.40
31129;DHT22;17777;48.770;8.944;2022-09-13T04:32:46;19.00;48.40
31129;DHT22;17777;48.770;8.944;2022-09-13T04:35:12;19.00;48.50
31129;DHT22;17777;48.770;8.944;2022-09-13T04:37:37;19.00;48.50
31129;DHT22;17777;48.770;8.944;2022-09-13T04:40:04;18.90;48.40
31129;DHT22;17777;48.770;8.944;2022-09-13T04:42:32;19.00;48.50
31129;DHT22;17777;48.770;8.944;2022-09-13T04:44:57;18.90;48.50
31129;DHT22;17777;48.770;8.944;2022-09-13T04:47:24;18.90;48.50
31129;DHT22;17777;48.770;8.944;2022-09-13T04:49:49;18.90;48.50
31129;DHT22;17777;48.770;8.944;2022-09-13T04:52:15;18.90;48.60
31129;DHT22;17777;48.770;8.944;2022-09-13T04:54:41;18.90;48.60
31129;DHT22;17777;48.770;8.944;2022-09-13T04:57:06;18.90;48.60
31129;DHT22;17777;48.770;8.944;2022-09-13T04:59:32;19.00;48.70
31129;DHT22;17777;48.770;8.944;2022-09-13T05:01:58;19.00;48.70
31129;DHT22;17777;48.770;8.944;2022-09-13T05:04:24;19.00;48.70
31129;DHT22;17777;48.770;8.944;2022-09-13T05:06:49;19.00;48.70
31129;DHT22;17777;48.770;8.944;2022-09-13T05:09:15;19.00;48.60
31129;DHT22;17777;48.770;8.944;2022-09-13T05:11:41;19.00;48.60
31129;DHT22;17777;48.770;8.944;2022-09-13T05:14:10;19.00;48.70
31129;DHT22;17777;48.770;8.944;2022-09-13T05:16:36;19.00;48.70
31129;DHT22;17777;48.770;8.944;2022-09-13T05:19:02;19.00;48.70
31129;DHT22;17777;48.770;8.944;2022-09-13T05:21:28;19.00;48.70
31129;DHT22;17777;48.770;8.944;2022-09-13T05:23:55;19.00;48.70
31129;DHT22;17777;48.770;8.944;2022-09-13T05:26:22;19.00;48.70
31129;DHT22;17777;48.770;8.944;2022-09-13T05:28:49;19.00;48.70
31129;DHT22;17777;48.770;8.944;2022-09-13T05:31:16;19.00;48.70
31129;DHT22;17777;48.770;8.944;2022-09-13T05:33:51;19.00;48.70
31129;DHT22;17777;48.770;8.944;2022-09-13T05:36:18;19.00;48.80
31129;DHT22;17777;48.770;8.944;2022-09-13T05:38:44;19.00;48.80
31129;DHT22;17777;48.770;8.944;2022-09-13T05:41:09;19.00;48.80
31129;DHT22;17777;48.770;8.944;2022-09-13T05:43:35;19.00;48.80
31129;DHT22;17777;48.770;8.944;2022-09-13T05:46:05;19.00;48.80
31129;DHT22;17777;48.770;8.944;2022-09-13T05:48:33;19.00;48.80
31129;DHT22;17777;48.770;8.944;2022-09-13T05:51:09;19.00;48.80
31129;DHT22;17777;48.770;8.944;2022-09-13T05:53:36;19.00;48.80
31129;DHT22;17777;48.770;8.944;2022-09-13T05:56:04;19.00;48.80
31129;DHT22;17777;48.770;8.944;2022-09-13T05:58:31;19.00;48.80
31129;DHT22;17777;48.770;8.944;2022-09-13T06:00:58;19.00;48.90
31129;DHT22;17777;48.770;8.944;2022-09-13T06:03:23;19.00;48.90
31129;DHT22;17777;48.770;8.944;2022-09-13T06:05:49;18.90;48.90
31129;DHT22;17777;48.770;8.944;2022-09-13T06:08:22;18.90;48.90
31129;DHT22;17777;48.770;8.944;2022-09-13T06:11:05;18.90;49.00
31129;DHT22;17777;48.770;8.944;2022-09-13T06:13:38;18.90;49.00
31129;DHT22;17777;48.770;8.944;2022-09-13T06:16:05;18.90;49.00
31129;DHT22;17777;48.770;8.944;2022-09-13T06:18:32;19.00;49.10
31129;DHT22;17777;48.770;8.944;2022-09-13T06:21:01;19.00;49.10
31129;DHT22;17777;48.770;8.944;2022-09-13T06:23:28;19.00;49.10
31129;DHT22;17777;48.770;8.944;2022-09-13T06:26:07;19.00;49.10
31129;DHT22;17777;48.770;8.944;2022-09-13T06:28:35;19.10;49.10
31129;DHT22;17777;48.770;8.944;2022-09-13T06:31:05;19.10;49.10
31129;DHT22;17777;48.770;8.944;2022-09-13T06:33:35;19.10;49.10
31129;DHT22;17777;48.770;8.944;2022-09-13T06:36:03;19.20;49.20
31129;DHT22;17777;48.770;8.944;2022-09-13T06:38:30;19.20;49.10
31129;DHT22;17777;48.770;8.944;2022-09-13T06:43:26;19.30;49.20
31129;DHT22;17777;48.770;8.944;2022-09-13T06:45:52;19.30;49.20
31129;DHT22;17777;48.770;8.944;2022-09-13T06:48:18;19.30;49.10
31129;DHT22;17777;48.770;8.944;2022-09-13T06:50:44;19.40;49.20
31129;DHT22;17777;48.770;8.944;2022-09-13T06:53:10;19.50;49.20
31129;DHT22;17777;48.770;8.944;2022-09-13T06:55:37;19.50;49.30
31129;DHT22;17777;48.770;8.944;2022-09-13T06:58:02;19.60;49.30
31129;DHT22;17777;48.770;8.944;2022-09-13T07:00:28;19.70;49.30
31129;DHT22;17777;48.770;8.944;2022-09-13T07:02:54;19.80;49.30
31129;DHT22;17777;48.770;8.944;2022-09-13T07:05:19;19.90;49.30
31129;DHT22;17777;48.770;8.944;2022-09-13T07:07:45;20.00;49.40
31129;DHT22;17777;48.770;8.944;2022-09-13T07:10:11;20.10;49.40
31129;DHT22;17777;48.770;8.944;2022-09-13T07:12:39;20.30;49.40
31129;DHT22;17777;48.770;8.944;2022-09-13T07:15:05;20.40;49.40
31129;DHT22;17777;48.770;8.944;2022-09-13T07:17:31;20.50;49.40
31129;DHT22;17777;48.770;8.944;2022-09-13T07:19:57;20.60;49.30
31129;DHT22;17777;48.770;8.944;2022-09-13T07:22:23;20.70;49.20
31129;DHT22;17777;48.770;8.944;2022-09-13T07:24:52;20.80;49.30
31129;DHT22;17777;48.770;8.944;2022-09-13T07:27:18;21.00;49.30
31129;DHT22;17777;48.770;8.944;2022-09-13T07:29:43;21.10;49.20
31129;DHT22;17777;48.770;8.944;2022-09-13T07:32:09;21.10;49.20
31129;DHT22;17777;48.770;8.944;2022-09-13T07:34:35;21.20;49.20
31129;DHT22;17777;48.770;8.944;2022-09-13T07:37:00;21.30;49.20
31129;DHT22;17777;48.770;8.944;2022-09-13T07:39:26;21.40;49.20
31129;DHT22;17777;48.770;8.944;2022-09-13T07:41:52;21.50;49.20
31129;DHT22;17777;48.770;8.944;2022-09-13T07:44:20;21.70;49.20
31129;DHT22;17777;48.770;8.944;2022-09-13T07:46:47;21.80;49.20
31129;DHT22;17777;48.770;8.944;2022-09-13T07:49:13;21.90;49.20
31129;DHT22;17777;48.770;8.944;2022-09-13T07:51:41;22.00;49.10
31129;DHT22;17777;48.770;8.944;2022-09-13T07:54:12;22.10;49.10
31129;DHT22;17777;48.770;8.944;2022-09-13T07:56:39;22.20;49.00
31129;DHT22;17777;48.770;8.944;2022-09-13T07:59:06;22.30;49.00
31129;DHT22;17777;48.770;8.944;2022-09-13T08:01:37;22.40;49.00
31129;DHT22;17777;48.770;8.944;2022-09-13T08:04:07;22.50;49.00
31129;DHT22;17777;48.770;8.944;2022-09-13T08:06:35;22.60;49.00
31129;DHT22;17777;48.770;8.944;2022-09-13T08:09:03;22.70;48.90
31129;DHT22;17777;48.770;8.944;2022-09-13T08:11:48;22.80;48.90
31129;DHT22;17777;48.770;8.944;2022-09-13T08:14:17;22.90;48.90
31129;DHT22;17777;48.770;8.944;2022-09-13T08:16:44;23.00;48.80
31129;DHT22;17777;48.770;8.944;2022-09-13T08:19:14;23.10;48.80
31129;DHT22;17777;48.770;8.944;2022-09-13T08:21:41;23.20;48.80
31129;DHT22;17777;48.770;8.944;2022-09-13T08:24:13;23.30;48.80
31129;DHT22;17777;48.770;8.944;2022-09-13T08:26:41;23.30;48.70
31129;DHT22;17777;48.770;8.944;2022-09-13T08:29:07;23.40;48.70
31129;DHT22;17777;48.770;8.944;2022-09-13T08:31:33;23.50;48.70
31129;DHT22;17777;48.770;8.944;2022-09-13T08:33:59;23.60;48.70
31129;DHT22;17777;48.770;8.944;2022-09-13T08:36:25;23.60;48.70
31129;DHT22;17777;48.770;8.944;2022-09-13T08:38:52;23.70;48.70
31129;DHT22;17777;48.770;8.944;2022-09-13T08:44:07;23.90;48.70
31129;DHT22;17777;48.770;8.944;2022-09-13T08:46:56;24.10;48.70
31129;DHT22;17777;48.770;8.944;2022-09-13T08:49:45;24.20;48.60
31129;DHT22;17777;48.770;8.944;2022-09-13T08:52:23;24.30;48.60
31129;DHT22;17777;48.770;8.944;2022-09-13T08:54:55;24.40;48.50
31129;DHT22;17777;48.770;8.944;2022-09-13T08:57:25;24.60;48.50
31129;DHT22;17777;48.770;8.944;2022-09-13T09:02:43;24.80;48.50
31129;DHT22;17777;48.770;8.944;2022-09-13T09:05:21;24.90;48.40
31129;DHT22;17777;48.770;8.944;2022-09-13T09:07:50;25.10;48.40
31129;DHT22;17777;48.770;8.944;2022-09-13T09:10:39;25.20;48.30
31129;DHT22;17777;48.770;8.944;2022-09-13T09:13:26;25.40;48.30
31129;DHT22;17777;48.770;8.944;2022-09-13T09:15:58;25.50;48.30
31129;DHT22;17777;48.770;8.944;2022-09-13T09:20:52;25.80;48.10
31129;DHT22;17777;48.770;8.944;2022-09-13T09:23:22;26.00;48.10
31129;DHT22;17777;48.770;8.944;2022-09-13T09:25:50;26.10;48.00
31129;DHT22;17777;48.770;8.944;2022-09-13T09:28:40;26.30;48.00
31129;DHT22;17777;48.770;8.944;2022-09-13T09:31:08;26.40;47.90
31129;DHT22;17777;48.770;8.944;2022-09-13T09:36:23;26.70;47.60
31129;DHT22;17777;48.770;8.944;2022-09-13T09:39:03;26.70;47.50
31129;DHT22;17777;48.770;8.944;2022-09-13T09:41:30;26.80;47.40
31129;DHT22;17777;48.770;8.944;2022-09-13T09:46:50;26.90;47.30
31129;DHT22;17777;48.770;8.944;2022-09-13T09:49:21;27.00;47.20
31129;DHT22;17777;48.770;8.944;2022-09-13T09:52:11;27.10;47.20
31129;DHT22;17777;48.770;8.944;2022-09-13T09:54:39;27.10;47.10
31129;DHT22;17777;48.770;8.944;2022-09-13T09:57:06;27.20;47.00
31129;DHT22;17777;48.770;8.944;2022-09-13T09:59:32;27.30;47.00
31129;DHT22;17777;48.770;8.944;2022-09-13T10:01:59;27.30;46.90
31129;DHT22;17777;48.770;8.944;2022-09-13T10:04:26;27.30;46.80
31129;DHT22;17777;48.770;8.944;2022-09-13T10:09:52;27.50;46.80
31129;DHT22;17777;48.770;8.944;2022-09-13T10:12:24;27.50;46.80
31129;DHT22;17777;48.770;8.944;2022-09-13T10:14:52;27.50;46.70
31129;DHT22;17777;48.770;8.944;2022-09-13T10:23:44;27.90;46.90
31129;DHT22;17777;48.770;8.944;2022-09-13T10:28:59;28.10;47.10
31129;DHT22;17777;48.770;8.944;2022-09-13T10:31:39;28.40;47.30
31129;DHT22;17777;48.770;8.944;2022-09-13T10:34:17;28.60;47.40
31129;DHT22;17777;48.770;8.944;2022-09-13T10:39:20;29.10;47.40
31129;DHT22;17777;48.770;8.944;2022-09-13T10:44:42;29.70;47.10
31129;DHT22;17777;48.770;8.944;2022-09-13T10:47:17;30.10;47.00
31129;DHT22;17777;48.770;8.944;2022-09-13T10:49:46;30.40;46.60
31129;DHT22;17777;48.770;8.944;2022-09-13T10:54:51;30.70;45.80
31129;DHT22;17777;48.770;8.944;2022-09-13T10:57:26;30.90;45.60
31129;DHT22;17777;48.770;8.944;2022-09-13T10:59:56;30.90;45.50
31129;DHT22;17777;48.770;8.944;2022-09-13T11:10:02;30.70;44.90
31129;DHT22;17777;48.770;8.944;2022-09-13T11:20:17;30.40;44.60
31129;DHT22;17777;48.770;8.944;2022-09-13T11:22:57;30.40;44.60
31129;DHT22;17777;48.770;8.944;2022-09-13T11:25:35;30.30;44.50
31129;DHT22;17777;48.770;8.944;2022-09-13T11:31:29;30.20;44.40
31129;DHT22;17777;48.770;8.944;2022-09-13T11:37:12;30.10;44.30
31129;DHT22;17777;48.770;8.944;2022-09-13T11:45:22;30.10;44.20
31129;DHT22;17777;48.770;8.944;2022-09-13T11:47:56;30.10;44.20
31129;DHT22;17777;48.770;8.944;2022-09-13T11:55:56;30.10;44.10
31129;DHT22;17777;48.770;8.944;2022-09-13T11:58:26;30.10;44.00
31129;DHT22;17777;48.770;8.944;2022-09-13T12:00:59;30.10;44.00
31129;DHT22;17777;48.770;8.944;2022-09-13T12:06:18;30.10;43.90
31129;DHT22;17777;48.770;8.944;2022-09-13T12:08:49;30.10;43.90
31129;DHT22;17777;48.770;8.944;2022-09-13T12:11:16;30.00;43.90
31129;DHT22;17777;48.770;8.944;2022-09-13T12:13:52;30.00;43.80
31129;DHT22;17777;48.770;8.944;2022-09-13T12:16:21;30.00;43.80
31129;DHT22;17777;48.770;8.944;2022-09-13T12:18:58;29.90;43.80
31129;DHT22;17777;48.770;8.944;2022-09-13T12:21:27;29.90;43.80
31129;DHT22;17777;48.770;8.944;2022-09-13T12:26:30;29.90;43.90
31129;DHT22;17777;48.770;8.944;2022-09-13T12:32:05;29.90;44.00
31129;DHT22;17777;48.770;8.944;2022-09-13T12:34:48;29.90;44.00
31129;DHT22;17777;48.770;8.944;2022-09-13T12:40:09;29.80;43.90
31129;DHT22;17777;48.770;8.944;2022-09-13T12:43:06;29.80;43.90
31129;DHT22;17777;48.770;8.944;2022-09-13T12:48:48;29.80;44.00
31129;DHT22;17777;48.770;8.944;2022-09-13T13:02:35;29.90;44.00
31129;DHT22;17777;48.770;8.944;2022-09-13T13:05:04;30.00;44.10
31129;DHT22;17777;48.770;8.944;2022-09-13T13:07:32;29.90;44.00
31129;DHT22;17777;48.770;8.944;2022-09-13T13:09:59;30.00;44.00
31129;DHT22;17777;48.770;8.944;2022-09-13T13:14:53;30.10;44.00
31129;DHT22;17777;48.770;8.944;2022-09-13T13:17:41;30.10;44.00
31129;DHT22;17777;48.770;8.944;2022-09-13T13:23:37;30.20;44.00
31129;DHT22;17777;48.770;8.944;2022-09-13T13:33:53;30.30;44.00
31129;DHT22;17777;48.770;8.944;2022-09-13T13:36:49;30.40;44.00
31129;DHT22;17777;48.770;8.944;2022-09-13T13:50:07;30.60;43.80
31129;DHT22;17777;48.770;8.944;2022-09-13T13:52:36;30.60;43.70
31129;DHT22;17777;48.770;8.944;2022-09-13T13:55:48;30.60;43.60
31129;DHT22;17777;48.770;8.944;2022-09-13T13:58:02;30.70;43.70
31129;DHT22;17777;48.770;8.944;2022-09-13T14:00:34;30.70;43.70
31129;DHT22;17777;48.770;8.944;2022-09-13T14:11:03;30.90;43.60
31129;DHT22;17777;48.770;8.944;2022-09-13T14:13:41;30.90;43.50
31129;DHT22;17777;48.770;8.944;2022-09-13T14:18:44;31.00;43.50
31129;DHT22;17777;48.770;8.944;2022-09-13T14:21:21;31.00;43.40
31129;DHT22;17777;48.770;8.944;2022-09-13T14:23:49;31.00;43.40
31129;DHT22;17777;48.770;8.944;2022-09-13T14:26:15;31.00;43.40
31129;DHT22;17777;48.770;8.944;2022-09-13T14:28:41;31.00;43.30
31129;DHT22;17777;48.770;8.944;2022-09-13T14:31:07;31.00;43.30
31129;DHT22;17777;48.770;8.944;2022-09-13T14:33:41;31.00;43.20
31129;DHT22;17777;48.770;8.944;2022-09-13T14:36:13;31.00;43.80
31129;DHT22;17777;48.770;8.944;2022-09-13T14:38:50;31.00;43.20
31129;DHT22;17777;48.770;8.944;2022-09-13T14:41:18;31.00;43.10
31129;DHT22;17777;48.770;8.944;2022-09-13T14:43:46;31.10;43.10
31129;DHT22;17777;48.770;8.944;2022-09-13T14:46:16;31.10;43.00
31129;DHT22;17777;48.770;8.944;2022-09-13T14:48:56;31.10;43.60
31129;DHT22;17777;48.770;8.944;2022-09-13T14:51:27;31.00;42.90
31129;DHT22;17777;48.770;8.944;2022-09-13T14:56:41;31.00;42.90
31129;DHT22;17777;48.770;8.944;2022-09-13T14:59:16;31.00;42.90
31129;DHT22;17777;48.770;8.944;2022-09-13T15:01:45;31.00;42.90
31129;DHT22;17777;48.770;8.944;2022-09-13T15:04:11;31.00;42.90
31129;DHT22;17777;48.770;8.944;2022-09-13T15:06:37;31.00;42.80
31129;DHT22;17777;48.770;8.944;2022-09-13T15:11:36;30.90;42.80
31129;DHT22;17777;48.770;8.944;2022-09-13T15:16:54;30.80;42.70
31129;DHT22;17777;48.770;8.944;2022-09-13T15:19:29;30.80;42.70
31129;DHT22;17777;48.770;8.944;2022-09-13T15:22:04;30.70;42.60
31129;DHT22;17777;48.770;8.944;2022-09-13T15:24:33;30.70;42.70
31129;DHT22;17777;48.770;8.944;2022-09-13T15:27:00;30.70;42.60
31129;DHT22;17777;48.770;8.944;2022-09-13T15:29:27;30.60;42.60
31129;DHT22;17777;48.770;8.944;2022-09-13T15:31:57;30.60;42.50
31129;DHT22;17777;48.770;8.944;2022-09-13T15:34:23;30.50;42.50
31129;DHT22;17777;48.770;8.944;2022-09-13T15:37:01;30.50;42.40
31129;DHT22;17777;48.770;8.944;2022-09-13T15:42:12;30.40;42.40
31129;DHT22;17777;48.770;8.944;2022-09-13T15:44:38;30.30;42.30
31129;DHT22;17777;48.770;8.944;2022-09-13T15:47:07;30.30;42.30
31129;DHT22;17777;48.770;8.944;2022-09-13T15:49:34;30.30;42.40
31129;DHT22;17777;48.770;8.944;2022-09-13T15:52:02;30.20;42.40
31129;DHT22;17777;48.770;8.944;2022-09-13T15:54:31;30.20;42.30
31129;DHT22;17777;48.770;8.944;2022-09-13T15:56:58;30.10;42.20
31129;DHT22;17777;48.770;8.944;2022-09-13T15:59:24;30.10;42.30
31129;DHT22;17777;48.770;8.944;2022-09-13T16:01:50;30.00;42.20
31129;DHT22;17777;48.770;8.944;2022-09-13T16:04:16;30.00;42.20
31129;DHT22;17777;48.770;8.944;2022-09-13T16:06:43;30.00;42.30
31129;DHT22;17777;48.770;8.944;2022-09-13T16:09:21;29.90;42.20
31129;DHT22;17777;48.770;8.944;2022-09-13T16:11:49;29.90;42.20
31129;DHT22;17777;48.770;8.944;2022-09-13T16:14:16;29.90;42.20
31129;DHT22;17777;48.770;8.944;2022-09-13T16:16:43;29.80;42.10
31129;DHT22;17777;48.770;8.944;2022-09-13T16:19:20;29.80;42.10
31129;DHT22;17777;48.770;8.944;2022-09-13T16:21:47;29.80;42.20
31129;DHT22;17777;48.770;8.944;2022-09-13T16:24:13;29.70;42.10
31129;DHT22;17777;48.770;8.944;2022-09-13T16:26:39;29.70;42.10
31129;DHT22;17777;48.770;8.944;2022-09-13T16:29:06;29.70;42.10
31129;DHT22;17777;48.770;8.944;2022-09-13T16:31:31;29.70;42.10
31129;DHT22;17777;48.770;8.944;2022-09-13T16:33:57;29.60;42.10
31129;DHT22;17777;48.770;8.944;2022-09-13T16:36:23;29.60;42.10
31129;DHT22;17777;48.770;8.944;2022-09-13T16:38:49;29.60;42.10
31129;DHT22;17777;48.770;8.944;2022-09-13T16:41:14;29.60;42.10
31129;DHT22;17777;48.770;8.944;2022-09-13T16:43:40;29.50;42.10
31129;DHT22;17777;48.770;8.944;2022-09-13T16:46:09;29.50;42.10
31129;DHT22;17777;48.770;8.944;2022-09-13T16:48:36;29.50;42.10
31129;DHT22;17777;48.770;8.944;2022-09-13T16:51:02;29.40;42.00
31129;DHT22;17777;48.770;8.944;2022-09-13T16:53:35;29.40;42.00
31129;DHT22;17777;48.770;8.944;2022-09-13T16:56:03;29.40;42.00
31129;DHT22;17777;48.770;8.944;2022-09-13T16:58:30;29.40;42.10
31129;DHT22;17777;48.770;8.944;2022-09-13T17:00:55;29.30;42.00
31129;DHT22;17777;48.770;8.944;2022-09-13T17:03:21;29.30;42.00
31129;DHT22;17777;48.770;8.944;2022-09-13T17:05:57;29.30;42.00
31129;DHT22;17777;48.770;8.944;2022-09-13T17:08:23;29.30;42.00
31129;DHT22;17777;48.770;8.944;2022-09-13T17:10:49;29.20;42.00
31129;DHT22;17777;48.770;8.944;2022-09-13T17:13:14;29.30;42.10
31129;DHT22;17777;48.770;8.944;2022-09-13T17:15:40;29.20;42.00
31129;DHT22;17777;48.770;8.944;2022-09-13T17:18:06;29.20;41.90
31129;DHT22;17777;48.770;8.944;2022-09-13T17:20:32;29.20;41.90
31129;DHT22;17777;48.770;8.944;2022-09-13T17:22:57;29.10;41.80
31129;DHT22;17777;48.770;8.944;2022-09-13T17:25:30;29.10;41.90
31129;DHT22;17777;48.770;8.944;2022-09-13T17:27:56;29.00;41.90
31129;DHT22;17777;48.770;8.944;2022-09-13T17:30:22;29.00;41.90
31129;DHT22;17777;48.770;8.944;2022-09-13T17:32:47;29.00;41.90
31129;DHT22;17777;48.770;8.944;2022-09-13T17:35:13;28.90;41.90
31129;DHT22;17777;48.770;8.944;2022-09-13T17:37:41;28.90;42.00
31129;DHT22;17777;48.770;8.944;2022-09-13T17:40:07;28.90;42.00
31129;DHT22;17777;48.770;8.944;2022-09-13T17:42:32;28.90;42.00
31129;DHT22;17777;48.770;8.944;2022-09-13T17:44:58;28.80;42.00
31129;DHT22;17777;48.770;8.944;2022-09-13T17:47:24;28.80;42.00
31129;DHT22;17777;48.770;8.944;2022-09-13T17:49:50;28.80;42.00
31129;DHT22;17777;48.770;8.944;2022-09-13T17:52:18;28.70;42.00
31129;DHT22;17777;48.770;8.944;2022-09-13T17:54:44;28.70;42.00
31129;DHT22;17777;48.770;8.944;2022-09-13T17:57:11;28.70;42.00
31129;DHT22;17777;48.770;8.944;2022-09-13T17:59:39;28.60;41.90
31129;DHT22;17777;48.770;8.944;2022-09-13T18:02:05;28.50;41.90
31129;DHT22;17777;48.770;8.944;2022-09-13T18:04:31;28.50;42.00
31129;DHT22;17777;48.770;8.944;2022-09-13T18:06:57;28.40;42.00
31129;DHT22;17777;48.770;8.944;2022-09-13T18:09:22;28.40;42.00
31129;DHT22;17777;48.770;8.944;2022-09-13T18:11:49;28.30;42.00
31129;DHT22;17777;48.770;8.944;2022-09-13T18:14:15;28.30;42.10
31129;DHT22;17777;48.770;8.944;2022-09-13T18:16:41;28.30;42.20
31129;DHT22;17777;48.770;8.944;2022-09-13T18:19:08;28.20;42.00
31129;DHT22;17777;48.770;8.944;2022-09-13T18:21:33;28.20;42.10
31129;DHT22;17777;48.770;8.944;2022-09-13T18:23:59;28.10;42.00
31129;DHT22;17777;48.770;8.944;2022-09-13T18:26:29;28.00;42.00
31129;DHT22;17777;48.770;8.944;2022-09-13T18:28:57;28.00;42.20
31129;DHT22;17777;48.770;8.944;2022-09-13T18:31:28;27.90;42.10
31129;DHT22;17777;48.770;8.944;2022-09-13T18:33:59;27.90;42.20
31129;DHT22;17777;48.770;8.944;2022-09-13T18:36:32;27.80;42.20
31129;DHT22;17777;48.770;8.944;2022-09-13T18:38:58;27.90;42.30
31129;DHT22;17777;48.770;8.944;2022-09-13T18:41:34;27.80;42.20
31129;DHT22;17777;48.770;8.944;2022-09-13T18:44:01;27.80;42.30
31129;DHT22;17777;48.770;8.944;2022-09-13T18:46:29;27.70;42.30
31129;DHT22;17777;48.770;8.944;2022-09-13T18:48:56;27.70;42.30
31129;DHT22;17777;48.770;8.944;2022-09-13T18:51:23;27.60;42.30
31129;DHT22;17777;48.770;8.944;2022-09-13T18:53:50;27.60;42.30
31129;DHT22;17777;48.770;8.944;2022-09-13T18:56:17;27.60;42.40
31129;DHT22;17777;48.770;8.944;2022-09-13T18:58:45;27.50;42.30